sensor_id;sensor_type;location;lat;lon;timestamp;P1;durP1;ratioP1;P2;durP2;ratioP2
45382;SDS011;42455;51.660;5.824;2023-07-16T00:02:06;4.0;;;3.0;;
45382;SDS011;42455;51.660;5.824;2023-07-16T00:07:12;4.0;;;3.0;;
45382;SDS011;42455;51.660;5.824;2023-07-16T00:12:18;4.0;;;3.0;;
45382;SDS011;42455;51.660;5.824;2023-07-16T00:17:24;5.0;;;3.0;;
45382;SDS011;42455;51.660;5.824;2023-07-16T00:22:31;4.0;;;2.0;;
45382;SDS011;42455;51.660;5.824;2023-07-16T00:27:37;5.0;;;3.0;;
45382;SDS011;42455;51.660;5.824;2023-07-16T00:32:43;3.5;;;2.0;;
45382;SDS011;42455;51.660;5.824;2023-07-16T00:37:49;4.0;;;2.5;;
45382;SDS011;42455;51.660;5.824;2023-07-16T00:42:55;4.0;;;3.0;;
45382;SDS011;42455;51.660;5.824;2023-07-16T00:48:05;4.0;;;3.0;;
45382;SDS011;42455;51.660;5.824;2023-07-16T00:53:08;5.0;;;3.0;;
45382;SDS011;42455;51.660;5.824;2023-07-16T00:58:14;5.0;;;3.0;;
45382;SDS011;42455;51.660;5.824;2023-07-16T01:03:21;5.0;;;3.0;;
45382;SDS011;42455;51.660;5.824;2023-07-16T01:08:34;3.0;;;3.0;;
45382;SDS011;42455;51.660;5.824;2023-07-16T01:13:33;5.0;;;3.0;;
45382;SDS011;42455;51.660;5.824;2023-07-16T01:18:39;5.0;;;3.0;;
45382;SDS011;42455;51.660;5.824;2023-07-16T01:24:34;5.0;;;3.0;;
45382;SDS011;42455;51.660;5.824;2023-07-16T01:30:03;5.0;;;3.0;;
45382;SDS011;42455;51.660;5.824;2023-07-16T01:33:58;3.0;;;3.0;;
45382;SDS011;42455;51.660;5.824;2023-07-16T01:39:03;4.0;;;3.0;;
45382;SDS011;42455;51.660;5.824;2023-07-16T01:44:09;6.0;;;3.0;;
45382;SDS011;42455;51.660;5.824;2023-07-16T01:49:15;5.0;;;3.0;;
45382;SDS011;42455;51.660;5.824;2023-07-16T01:54:21;6.0;;;3.0;;
45382;SDS011;42455;51.660;5.824;2023-07-16T01:59:28;5.5;;;3.0;;
45382;SDS011;42455;51.660;5.824;2023-07-16T02:04:33;6.0;;;3.0;;
45382;SDS011;42455;51.660;5.824;2023-07-16T02:09:39;4.0;;;3.0;;
45382;SDS011;42455;51.660;5.824;2023-07-16T02:14:45;6.0;;;3.0;;
45382;SDS011;42455;51.660;5.824;2023-07-16T02:19:52;4.0;;;3.0;;
45382;SDS011;42455;51.660;5.824;2023-07-16T02:24:58;5.0;;;3.0;;
45382;SDS011;42455;51.660;5.824;2023-07-16T02:30:04;6.0;;;3.0;;
45382;SDS011;42455;51.660;5.824;2023-07-16T02:35:10;4.0;;;3.0;;
45382;SDS011;42455;51.660;5.824;2023-07-16T02:40:16;4.0;;;3.0;;
45382;SDS011;42455;51.660;5.824;2023-07-16T02:45:23;5.0;;;3.0;;
45382;SDS011;42455;51.660;5.824;2023-07-16T02:50:29;4.0;;;3.0;;
45382;SDS011;42455;51.660;5.824;2023-07-16T02:55:35;5.0;;;3.0;;
45382;SDS011;42455;51.660;5.824;2023-07-16T03:00:41;5.0;;;3.0;;
45382;SDS011;42455;51.660;5.824;2023-07-16T03:05:47;5.0;;;3.0;;
45382;SDS011;42455;51.660;5.824;2023-07-16T03:10:54;5.0;;;3.0;;
45382;SDS011;42455;51.660;5.824;2023-07-16T03:16:00;5.0;;;3.0;;
45382;SDS011;42455;51.660;5.824;2023-07-16T03:21:06;5.0;;;3.0;;
45382;SDS011;42455;51.660;5.824;2023-07-16T03:26:12;5.0;;;3.0;;
45382;SDS011;42455;51.660;5.824;2023-07-16T03:31:18;5.0;;;3.0;;
45382;SDS011;42455;51.660;5.824;2023-07-16T03:36:25;4.0;;;3.0;;
45382;SDS011;42455;51.660;5.824;2023-07-16T03:41:31;5.0;;;3.0;;
45382;SDS011;42455;51.660;5.824;2023-07-16T03:46:37;5.0;;;3.0;;
45382;SDS011;42455;51.660;5.824;2023-07-16T03:51:43;6.0;;;3.0;;
45382;SDS011;42455;51.660;5.824;2023-07-16T03:56:49;5.0;;;4.0;;
45382;SDS011;42455;51.660;5.824;2023-07-16T04:01:56;6.0;;;3.0;;
45382;SDS011;42455;51.660;5.824;2023-07-16T04:07:02;6.0;;;4.0;;
45382;SDS011;42455;51.660;5.824;2023-07-16T04:12:08;7.0;;;3.0;;
45382;SDS011;42455;51.660;5.824;2023-07-16T04:17:14;6.0;;;3.0;;
45382;SDS011;42455;51.660;5.824;2023-07-16T04:22:20;6.0;;;4.0;;
45382;SDS011;42455;51.660;5.824;2023-07-16T04:27:27;6.0;;;3.0;;
45382;SDS011;42455;51.660;5.824;2023-07-16T04:32:33;6.0;;;4.0;;
45382;SDS011;42455;51.660;5.824;2023-07-16T04:37:39;7.0;;;4.0;;
45382;SDS011;42455;51.660;5.824;2023-07-16T04:42:45;6.0;;;4.0;;
45382;SDS011;42455;51.660;5.824;2023-07-16T04:47:52;6.0;;;4.0;;
45382;SDS011;42455;51.660;5.824;2023-07-16T04:52:58;5.5;;;4.0;;
45382;SDS011;42455;51.660;5.824;2023-07-16T04:58:04;7.0;;;4.0;;
45382;SDS011;42455;51.660;5.824;2023-07-16T05:03:10;8.0;;;4.0;;
45382;SDS011;42455;51.660;5.824;2023-07-16T05:08:16;7.0;;;4.0;;
45382;SDS011;42455;51.660;5.824;2023-07-16T05:13:23;7.0;;;5.0;;
45382;SDS011;42455;51.660;5.824;2023-07-16T05:18:29;6.0;;;4.0;;
45382;SDS011;42455;51.660;5.824;2023-07-16T05:23:35;9.0;;;4.0;;
45382;SDS011;42455;51.660;5.824;2023-07-16T05:28:41;8.0;;;5.0;;
45382;SDS011;42455;51.660;5.824;2023-07-16T05:33:47;8.0;;;5.0;;
45382;SDS011;42455;51.660;5.824;2023-07-16T05:38:54;8.0;;;5.0;;
45382;SDS011;42455;51.660;5.824;2023-07-16T05:49:06;7.0;;;5.0;;
45382;SDS011;42455;51.660;5.824;2023-07-16T05:54:12;9.0;;;5.0;;
45382;SDS011;42455;51.660;5.824;2023-07-16T05:59:18;8.0;;;5.0;;
45382;SDS011;42455;51.660;5.824;2023-07-16T06:04:25;8.0;;;5.0;;
45382;SDS011;42455;51.660;5.824;2023-07-16T06:09:31;8.0;;;5.0;;
45382;SDS011;42455;51.660;5.824;2023-07-16T06:14:37;9.0;;;5.0;;
45382;SDS011;42455;51.660;5.824;2023-07-16T06:19:43;7.5;;;5.0;;
45382;SDS011;42455;51.660;5.824;2023-07-16T06:24:49;8.0;;;6.0;;
45382;SDS011;42455;51.660;5.824;2023-07-16T06:29:56;10.0;;;6.0;;
45382;SDS011;42455;51.660;5.824;2023-07-16T06:35:02;8.5;;;5.0;;
45382;SDS011;42455;51.660;5.824;2023-07-16T06:40:08;8.0;;;6.0;;
45382;SDS011;42455;51.660;5.824;2023-07-16T06:45:14;8.0;;;5.0;;
45382;SDS011;42455;51.660;5.824;2023-07-16T06:50:20;8.0;;;5.0;;
45382;SDS011;42455;51.660;5.824;2023-07-16T06:55:27;9.0;;;5.0;;
45382;SDS011;42455;51.660;5.824;2023-07-16T07:00:33;7.0;;;5.0;;
45382;SDS011;42455;51.660;5.824;2023-07-16T07:05:40;7.0;;;5.0;;
45382;SDS011;42455;51.660;5.824;2023-07-16T07:10:46;8.0;;;5.0;;
45382;SDS011;42455;51.660;5.824;2023-07-16T07:15:52;8.0;;;6.0;;
45382;SDS011;42455;51.660;5.824;2023-07-16T07:20:58;7.0;;;5.0;;
45382;SDS011;42455;51.660;5.824;2023-07-16T07:26:04;8.5;;;6.0;;
45382;SDS011;42455;51.660;5.824;2023-07-16T07:31:10;9.0;;;5.0;;
45382;SDS011;42455;51.660;5.824;2023-07-16T07:36:15;7.5;;;6.0;;
45382;SDS011;42455;51.660;5.824;2023-07-16T07:41:22;8.0;;;5.0;;
45382;SDS011;42455;51.660;5.824;2023-07-16T07:46:28;7.5;;;5.0;;
45382;SDS011;42455;51.660;5.824;2023-07-16T07:51:34;8.0;;;6.0;;
45382;SDS011;42455;51.660;5.824;2023-07-16T07:56:40;8.0;;;6.0;;
45382;SDS011;42455;51.660;5.824;2023-07-16T08:01:46;10.0;;;5.0;;
45382;SDS011;42455;51.660;5.824;2023-07-16T08:06:53;7.0;;;5.0;;
45382;SDS011;42455;51.660;5.824;2023-07-16T08:11:59;9.0;;;6.0;;
45382;SDS011;42455;51.660;5.824;2023-07-16T08:17:05;7.0;;;5.0;;
45382;SDS011;42455;51.660;5.824;2023-07-16T08:22:11;8.0;;;6.0;;
45382;SDS011;42455;51.660;5.824;2023-07-16T08:27:18;7.0;;;5.0;;
45382;SDS011;42455;51.660;5.824;2023-07-16T08:32:24;9.0;;;5.0;;
45382;SDS011;42455;51.660;5.824;2023-07-16T08:37:30;7.0;;;5.0;;
45382;SDS011;42455;51.660;5.824;2023-07-16T08:42:36;9.0;;;5.0;;
45382;SDS011;42455;51.660;5.824;2023-07-16T08:47:42;7.0;;;5.0;;
45382;SDS011;42455;51.660;5.824;2023-07-16T08:52:49;8.0;;;5.0;;
45382;SDS011;42455;51.660;5.824;2023-07-16T08:57:55;7.0;;;5.0;;
45382;SDS011;42455;51.660;5.824;2023-07-16T09:03:01;7.0;;;4.0;;
45382;SDS011;42455;51.660;5.824;2023-07-16T09:08:07;8.0;;;5.0;;
45382;SDS011;42455;51.660;5.824;2023-07-16T09:13:17;7.0;;;5.0;;
45382;SDS011;42455;51.660;5.824;2023-07-16T09:18:20;6.0;;;4.0;;
45382;SDS011;42455;51.660;5.824;2023-07-16T09:23:26;6.0;;;4.5;;
45382;SDS011;42455;51.660;5.824;2023-07-16T09:28:32;7.0;;;4.0;;
45382;SDS011;42455;51.660;5.824;2023-07-16T09:33:38;6.0;;;4.0;;
45382;SDS011;42455;51.660;5.824;2023-07-16T09:38:44;6.0;;;4.0;;
45382;SDS011;42455;51.660;5.824;2023-07-16T09:43:51;7.0;;;4.0;;
45382;SDS011;42455;51.660;5.824;2023-07-16T09:48:57;7.0;;;4.5;;
45382;SDS011;42455;51.660;5.824;2023-07-16T09:54:04;6.0;;;4.0;;
45382;SDS011;42455;51.660;5.824;2023-07-16T09:59:11;5.0;;;4.0;;
45382;SDS011;42455;51.660;5.824;2023-07-16T10:04:16;6.0;;;4.0;;
45382;SDS011;42455;51.660;5.824;2023-07-16T10:09:38;8.5;;;5.0;;
45382;SDS011;42455;51.660;5.824;2023-07-16T10:14:28;6.0;;;4.0;;
45382;SDS011;42455;51.660;5.824;2023-07-16T10:19:45;5.0;;;4.0;;
45382;SDS011;42455;51.660;5.824;2023-07-16T10:24:40;7.0;;;4.0;;
45382;SDS011;42455;51.660;5.824;2023-07-16T10:29:47;5.0;;;4.0;;
45382;SDS011;42455;51.660;5.824;2023-07-16T10:34:53;5.0;;;4.0;;
45382;SDS011;42455;51.660;5.824;2023-07-16T10:39:59;6.0;;;4.0;;
45382;SDS011;42455;51.660;5.824;2023-07-16T10:45:05;4.0;;;3.0;;
45382;SDS011;42455;51.660;5.824;2023-07-16T10:50:11;4.5;;;3.0;;
45382;SDS011;42455;51.660;5.824;2023-07-16T10:55:18;6.0;;;4.0;;
45382;SDS011;42455;51.660;5.824;2023-07-16T11:00:24;5.0;;;4.0;;
45382;SDS011;42455;51.660;5.824;2023-07-16T11:05:30;5.0;;;4.0;;
45382;SDS011;42455;51.660;5.824;2023-07-16T11:10:36;5.0;;;3.0;;
45382;SDS011;42455;51.660;5.824;2023-07-16T11:15:42;5.0;;;4.0;;
45382;SDS011;42455;51.660;5.824;2023-07-16T11:20:49;5.0;;;4.0;;
45382;SDS011;42455;51.660;5.824;2023-07-16T11:25:55;5.0;;;3.0;;
45382;SDS011;42455;51.660;5.824;2023-07-16T11:31:09;6.0;;;4.0;;
45382;SDS011;42455;51.660;5.824;2023-07-16T11:36:07;6.0;;;4.0;;
45382;SDS011;42455;51.660;5.824;2023-07-16T11:41:13;5.0;;;4.0;;
45382;SDS011;42455;51.660;5.824;2023-07-16T11:46:20;5.0;;;4.0;;
45382;SDS011;42455;51.660;5.824;2023-07-16T11:51:26;6.0;;;4.0;;
45382;SDS011;42455;51.660;5.824;2023-07-16T11:56:32;4.0;;;4.0;;
45382;SDS011;42455;51.660;5.824;2023-07-16T12:01:38;6.0;;;4.0;;
45382;SDS011;42455;51.660;5.824;2023-07-16T12:06:45;5.0;;;4.0;;
45382;SDS011;42455;51.660;5.824;2023-07-16T12:11:51;4.0;;;3.0;;
45382;SDS011;42455;51.660;5.824;2023-07-16T12:16:57;5.0;;;3.0;;
45382;SDS011;42455;51.660;5.824;2023-07-16T12:22:03;5.0;;;4.0;;
45382;SDS011;42455;51.660;5.824;2023-07-16T12:27:09;5.0;;;4.0;;
45382;SDS011;42455;51.660;5.824;2023-07-16T12:32:16;5.0;;;4.0;;
45382;SDS011;42455;51.660;5.824;2023-07-16T12:37:22;4.5;;;4.0;;
45382;SDS011;42455;51.660;5.824;2023-07-16T12:42:28;6.0;;;4.0;;
45382;SDS011;42455;51.660;5.824;2023-07-16T12:47:34;7.0;;;4.0;;
45382;SDS011;42455;51.660;5.824;2023-07-16T12:52:40;6.5;;;4.0;;
45382;SDS011;42455;51.660;5.824;2023-07-16T12:57:47;6.0;;;4.0;;
45382;SDS011;42455;51.660;5.824;2023-07-16T13:02:53;6.0;;;4.0;;
45382;SDS011;42455;51.660;5.824;2023-07-16T13:07:59;5.5;;;4.0;;
45382;SDS011;42455;51.660;5.824;2023-07-16T13:13:04;5.0;;;4.0;;
45382;SDS011;42455;51.660;5.824;2023-07-16T13:18:10;6.0;;;4.0;;
45382;SDS011;42455;51.660;5.824;2023-07-16T13:23:17;6.0;;;4.0;;
45382;SDS011;42455;51.660;5.824;2023-07-16T13:28:23;7.0;;;4.0;;
45382;SDS011;42455;51.660;5.824;2023-07-16T13:33:29;5.0;;;4.0;;
45382;SDS011;42455;51.660;5.824;2023-07-16T13:38:35;5.0;;;4.0;;
45382;SDS011;42455;51.660;5.824;2023-07-16T13:43:42;6.0;;;4.0;;
45382;SDS011;42455;51.660;5.824;2023-07-16T13:48:48;5.0;;;3.0;;
45382;SDS011;42455;51.660;5.824;2023-07-16T13:53:54;5.0;;;3.0;;
45382;SDS011;42455;51.660;5.824;2023-07-16T13:59:00;5.0;;;3.0;;
45382;SDS011;42455;51.660;5.824;2023-07-16T14:04:06;6.0;;;3.0;;
45382;SDS011;42455;51.660;5.824;2023-07-16T14:09:13;4.0;;;3.0;;
45382;SDS011;42455;51.660;5.824;2023-07-16T14:14:20;4.0;;;3.0;;
45382;SDS011;42455;51.660;5.824;2023-07-16T14:19:25;4.0;;;3.0;;
45382;SDS011;42455;51.660;5.824;2023-07-16T14:24:31;4.0;;;3.0;;
45382;SDS011;42455;51.660;5.824;2023-07-16T14:29:37;5.0;;;3.0;;
45382;SDS011;42455;51.660;5.824;2023-07-16T14:34:44;3.0;;;3.0;;
45382;SDS011;42455;51.660;5.824;2023-07-16T14:39:50;4.0;;;3.0;;
45382;SDS011;42455;51.660;5.824;2023-07-16T14:44:56;5.0;;;3.0;;
45382;SDS011;42455;51.660;5.824;2023-07-16T14:50:02;5.0;;;3.0;;
45382;SDS011;42455;51.660;5.824;2023-07-16T14:55:08;4.0;;;3.0;;
45382;SDS011;42455;51.660;5.824;2023-07-16T15:00:15;4.0;;;3.0;;
45382;SDS011;42455;51.660;5.824;2023-07-16T15:05:21;5.0;;;3.0;;
45382;SDS011;42455;51.660;5.824;2023-07-16T15:10:27;5.0;;;3.0;;
45382;SDS011;42455;51.660;5.824;2023-07-16T15:15:33;5.0;;;4.0;;
45382;SDS011;42455;51.660;5.824;2023-07-16T15:20:40;5.0;;;4.0;;
45382;SDS011;42455;51.660;5.824;2023-07-16T15:25:46;5.0;;;4.0;;
45382;SDS011;42455;51.660;5.824;2023-07-16T15:30:52;5.0;;;4.0;;
45382;SDS011;42455;51.660;5.824;2023-07-16T15:35:58;4.0;;;3.0;;
45382;SDS011;42455;51.660;5.824;2023-07-16T15:41:04;4.0;;;3.0;;
45382;SDS011;42455;51.660;5.824;2023-07-16T15:46:11;4.0;;;2.0;;
45382;SDS011;42455;51.660;5.824;2023-07-16T15:51:17;3.0;;;2.0;;
45382;SDS011;42455;51.660;5.824;2023-07-16T15:56:23;3.0;;;2.0;;
45382;SDS011;42455;51.660;5.824;2023-07-16T16:01:29;4.0;;;3.0;;
45382;SDS011;42455;51.660;5.824;2023-07-16T16:06:35;4.0;;;3.0;;
45382;SDS011;42455;51.660;5.824;2023-07-16T16:11:42;5.0;;;3.0;;
45382;SDS011;42455;51.660;5.824;2023-07-16T16:16:48;5.0;;;3.0;;
45382;SDS011;42455;51.660;5.824;2023-07-16T16:21:54;4.0;;;3.0;;
45382;SDS011;42455;51.660;5.824;2023-07-16T16:27:00;5.0;;;3.0;;
45382;SDS011;42455;51.660;5.824;2023-07-16T16:32:07;3.0;;;2.0;;
45382;SDS011;42455;51.660;5.824;2023-07-16T16:37:13;3.0;;;2.0;;
45382;SDS011;42455;51.660;5.824;2023-07-16T16:42:19;3.0;;;2.0;;
45382;SDS011;42455;51.660;5.824;2023-07-16T16:47:25;4.0;;;2.0;;
45382;SDS011;42455;51.660;5.824;2023-07-16T16:52:31;3.0;;;2.0;;
45382;SDS011;42455;51.660;5.824;2023-07-16T16:57:38;3.0;;;2.0;;
45382;SDS011;42455;51.660;5.824;2023-07-16T17:02:44;3.0;;;2.0;;
45382;SDS011;42455;51.660;5.824;2023-07-16T17:07:50;3.0;;;2.0;;
45382;SDS011;42455;51.660;5.824;2023-07-16T17:12:56;4.0;;;2.0;;
45382;SDS011;42455;51.660;5.824;2023-07-16T17:18:02;3.0;;;2.0;;
45382;SDS011;42455;51.660;5.824;2023-07-16T17:23:09;2.5;;;2.0;;
45382;SDS011;42455;51.660;5.824;2023-07-16T17:28:15;3.0;;;2.0;;
45382;SDS011;42455;51.660;5.824;2023-07-16T17:33:21;3.0;;;2.0;;
45382;SDS011;42455;51.660;5.824;2023-07-16T17:38:27;2.0;;;2.0;;
45382;SDS011;42455;51.660;5.824;2023-07-16T17:43:33;2.0;;;1.0;;
45382;SDS011;42455;51.660;5.824;2023-07-16T17:48:40;2.0;;;2.0;;
45382;SDS011;42455;51.660;5.824;2023-07-16T17:53:46;3.0;;;1.0;;
45382;SDS011;42455;51.660;5.824;2023-07-16T17:58:52;2.0;;;1.0;;
45382;SDS011;42455;51.660;5.824;2023-07-16T18:03:58;2.0;;;1.0;;
45382;SDS011;42455;51.660;5.824;2023-07-16T18:09:04;2.0;;;1.5;;
45382;SDS011;42455;51.660;5.824;2023-07-16T18:14:11;3.0;;;2.0;;
45382;SDS011;42455;51.660;5.824;2023-07-16T18:19:17;4.0;;;2.0;;
45382;SDS011;42455;51.660;5.824;2023-07-16T18:24:23;3.0;;;2.0;;
45382;SDS011;42455;51.660;5.824;2023-07-16T18:29:29;3.0;;;2.0;;
45382;SDS011;42455;51.660;5.824;2023-07-16T18:34:35;3.0;;;2.0;;
45382;SDS011;42455;51.660;5.824;2023-07-16T18:39:42;4.5;;;3.0;;
45382;SDS011;42455;51.660;5.824;2023-07-16T18:44:47;4.0;;;3.0;;
45382;SDS011;42455;51.660;5.824;2023-07-16T18:49:54;4.0;;;3.0;;
45382;SDS011;42455;51.660;5.824;2023-07-16T18:54:59;6.0;;;3.0;;
45382;SDS011;42455;51.660;5.824;2023-07-16T19:00:05;5.0;;;3.0;;
45382;SDS011;42455;51.660;5.824;2023-07-16T19:05:12;4.0;;;3.0;;
45382;SDS011;42455;51.660;5.824;2023-07-16T19:10:17;5.0;;;3.0;;
45382;SDS011;42455;51.660;5.824;2023-07-16T19:15:23;5.0;;;3.0;;
45382;SDS011;42455;51.660;5.824;2023-07-16T19:20:29;5.0;;;3.0;;
45382;SDS011;42455;51.660;5.824;2023-07-16T19:25:36;4.0;;;3.0;;
45382;SDS011;42455;51.660;5.824;2023-07-16T19:30:42;4.0;;;3.0;;
45382;SDS011;42455;51.660;5.824;2023-07-16T19:35:48;4.0;;;3.0;;
45382;SDS011;42455;51.660;5.824;2023-07-16T19:40:54;4.0;;;3.0;;
45382;SDS011;42455;51.660;5.824;2023-07-16T19:46:01;4.0;;;3.0;;
45382;SDS011;42455;51.660;5.824;2023-07-16T19:51:07;4.0;;;3.0;;
45382;SDS011;42455;51.660;5.824;2023-07-16T19:56:13;4.0;;;3.0;;
45382;SDS011;42455;51.660;5.824;2023-07-16T20:01:19;4.0;;;3.0;;
45382;SDS011;42455;51.660;5.824;2023-07-16T20:06:25;4.0;;;3.0;;
45382;SDS011;42455;51.660;5.824;2023-07-16T20:11:32;5.0;;;3.0;;
45382;SDS011;42455;51.660;5.824;2023-07-16T20:16:38;4.0;;;3.0;;
45382;SDS011;42455;51.660;5.824;2023-07-16T20:21:44;4.5;;;3.0;;
45382;SDS011;42455;51.660;5.824;2023-07-16T20:26:50;4.0;;;3.0;;
45382;SDS011;42455;51.660;5.824;2023-07-16T20:31:56;5.0;;;3.0;;
45382;SDS011;42455;51.660;5.824;2023-07-16T20:37:02;4.0;;;3.0;;
45382;SDS011;42455;51.660;5.824;2023-07-16T20:42:09;4.0;;;3.0;;
45382;SDS011;42455;51.660;5.824;2023-07-16T20:47:15;4.5;;;3.0;;
45382;SDS011;42455;51.660;5.824;2023-07-16T20:52:21;4.0;;;3.0;;
45382;SDS011;42455;51.660;5.824;2023-07-16T20:57:27;5.0;;;3.0;;
45382;SDS011;42455;51.660;5.824;2023-07-16T21:02:34;4.0;;;3.0;;
45382;SDS011;42455;51.660;5.824;2023-07-16T21:07:41;4.0;;;3.0;;
45382;SDS011;42455;51.660;5.824;2023-07-16T21:12:46;5.0;;;3.0;;
45382;SDS011;42455;51.660;5.824;2023-07-16T21:17:52;4.0;;;3.0;;
45382;SDS011;42455;51.660;5.824;2023-07-16T21:22:58;4.0;;;3.0;;
45382;SDS011;42455;51.660;5.824;2023-07-16T21:28:05;4.5;;;3.0;;
45382;SDS011;42455;51.660;5.824;2023-07-16T21:33:11;5.0;;;3.0;;
45382;SDS011;42455;51.660;5.824;2023-07-16T21:38:17;4.0;;;3.0;;
45382;SDS011;42455;51.660;5.824;2023-07-16T21:43:23;4.0;;;3.0;;
45382;SDS011;42455;51.660;5.824;2023-07-16T21:48:29;6.0;;;4.0;;
45382;SDS011;42455;51.660;5.824;2023-07-16T21:53:36;4.0;;;3.0;;
45382;SDS011;42455;51.660;5.824;2023-07-16T21:58:42;4.0;;;3.0;;
45382;SDS011;42455;51.660;5.824;2023-07-16T22:03:48;5.0;;;3.5;;
45382;SDS011;42455;51.660;5.824;2023-07-16T22:08:54;5.0;;;4.0;;
45382;SDS011;42455;51.660;5.824;2023-07-16T22:14:01;5.0;;;3.0;;
45382;SDS011;42455;51.660;5.824;2023-07-16T22:19:07;5.0;;;3.0;;
45382;SDS011;42455;51.660;5.824;2023-07-16T22:24:13;5.0;;;4.0;;
45382;SDS011;42455;51.660;5.824;2023-07-16T22:29:19;4.0;;;4.0;;
45382;SDS011;42455;51.660;5.824;2023-07-16T22:34:25;4.0;;;4.0;;
45382;SDS011;42455;51.660;5.824;2023-07-16T22:39:32;5.0;;;4.0;;
45382;SDS011;42455;51.660;5.824;2023-07-16T22:44:38;6.0;;;4.0;;
45382;SDS011;42455;51.660;5.824;2023-07-16T22:49:44;5.0;;;4.0;;
45382;SDS011;42455;51.660;5.824;2023-07-16T22:54:50;4.0;;;3.0;;
45382;SDS011;42455;51.660;5.824;2023-07-16T22:59:56;5.0;;;3.0;;
45382;SDS011;42455;51.660;5.824;2023-07-16T23:05:03;6.0;;;4.0;;
45382;SDS011;42455;51.660;5.824;2023-07-16T23:10:09;5.0;;;4.0;;
45382;SDS011;42455;51.660;5.824;2023-07-16T23:15:17;4.5;;;4.0;;
45382;SDS011;42455;51.660;5.824;2023-07-16T23:20:21;6.0;;;4.0;;
45382;SDS011;42455;51.660;5.824;2023-07-16T23:25:27;5.0;;;4.0;;
45382;SDS011;42455;51.660;5.824;2023-07-16T23:30:34;5.0;;;4.0;;
45382;SDS011;42455;51.660;5.824;2023-07-16T23:35:40;6.0;;;4.0;;
45382;SDS011;42455;51.660;5.824;2023-07-16T23:40:46;5.0;;;4.0;;
45382;SDS011;42455;51.660;5.824;2023-07-16T23:45:52;5.5;;;4.0;;
45382;SDS011;42455;51.660;5.824;2023-07-16T23:50:58;5.0;;;4.0;;
45382;SDS011;42455;51.660;5.824;2023-07-16T23:56:05;6.0;;;4.0;;
